Time;durP1;ratioP1;P1;durP2;ratioP2;P2;SDS_P1;SDS_P2;PMS_P1;PMS_P2;Temp;Humidity;BMP_temperature;BMP_pressure;BME280_temperature;BME280_humidity;BME280_pressure;Samples;Min_cycle;Max_cycle;Signal;HPM_P1;HPM_P2
2023/03/05 00:01:17;;;;;;;19.08;2.15;;;;;;;-144.47;71.89;53009.03;5027335;28;20136;-68
2023/03/05 00:03:43;;;;;;;6.22;2.03;;;;;;;-144.47;72.06;52977.25;5009211;28;20021;-68
2023/03/05 00:06:08;;;;;;;7.90;1.88;;;;;;;-144.47;72.40;53016.97;5026951;28;20084;-69
2023/03/05 00:08:34;;;;;;;5.68;1.45;;;;;;;-144.47;72.53;53015.00;5025779;28;20041;-70
2023/03/05 00:11:02;;;;;;;19.30;2.55;;;;;;;-144.47;72.74;53022.94;5026702;28;20021;-69
2023/03/05 00:13:28;;;;;;;6.60;1.50;;;;;;;-144.47;72.35;52991.16;5016833;28;20563;-69
2023/03/05 00:15:53;;;;;;;10.82;2.38;;;;;;;-144.47;72.20;53030.88;5026882;28;20100;-69
2023/03/05 00:18:19;;;;;;;5.32;1.50;;;;;;;-144.47;72.41;53011.00;5009031;28;20075;-69
2023/03/05 00:20:45;;;;;;;10.05;1.92;;;;;;;-144.47;72.48;53042.78;5027449;28;20029;-66
2023/03/05 00:23:10;;;;;;;5.40;2.10;;;;;;;-144.47;72.26;52991.16;5027137;28;20090;-69
2023/03/05 00:25:36;;;;;;;11.73;2.05;;;;;;;-144.47;72.55;53009.03;5026629;28;20026;-68
2023/03/05 00:28:02;;;;;;;5.88;1.80;;;;;;;-144.47;72.60;52991.16;5025343;28;20463;-69
2023/03/05 00:30:28;;;;;;;9.05;1.25;;;;;;;-144.47;72.14;53016.97;5030992;28;20041;-67
2023/03/05 00:32:53;;;;;;;4.18;1.45;;;;;;;-144.47;72.55;53022.94;5036069;28;20079;-68
2023/03/05 00:35:18;;;;;;;11.35;1.80;;;;;;;-144.47;71.46;53015.00;5027149;28;20035;-67
2023/03/05 00:37:44;;;;;;;5.40;2.08;;;;;;;-144.47;71.08;53005.06;5009292;28;20327;-65
2023/03/05 00:40:10;;;;;;;18.25;1.98;;;;;;;-144.47;71.08;53026.91;5028542;28;20119;-69
2023/03/05 00:42:37;;;;;;;8.70;1.65;;;;;;;-144.47;70.14;53015.00;5031478;28;20044;-69
2023/03/05 00:45:04;;;;;;;8.43;1.55;;;;;;;-144.47;70.41;53011.00;5030991;28;20021;-69
2023/03/05 00:47:29;;;;;;;4.90;1.27;;;;;;;-144.47;70.25;53005.06;5024079;28;20013;-68
2023/03/05 00:49:55;;;;;;;8.85;1.70;;;;;;;-144.47;69.53;53018.97;5030906;28;20343;-66
2023/03/05 00:52:20;;;;;;;5.45;1.33;;;;;;;-144.47;68.85;53032.88;5030936;28;20028;-69
2023/03/05 00:54:46;;;;;;;4.60;1.17;;;;;;;-144.47;68.46;53013.00;5030489;28;20029;-69
2023/03/05 00:57:11;;;;;;;12.35;1.45;;;;;;;-144.47;68.61;53003.06;5030475;28;20453;-69
2023/03/05 00:59:36;;;;;;;5.18;1.10;;;;;;;-144.47;68.67;53020.94;5030765;28;20025;-66
2023/03/05 01:02:02;;;;;;;4.38;0.90;;;;;;;-144.47;69.35;52997.09;5030947;28;20017;-70
2023/03/05 01:04:27;;;;;;;3.42;1.00;;;;;;;-144.47;69.52;53042.78;5030792;28;20052;-69
2023/03/05 01:06:53;;;;;;;10.63;1.20;;;;;;;-144.47;69.53;53020.94;5030598;28;20028;-66
2023/03/05 01:09:18;;;;;;;3.50;1.08;;;;;;;-144.47;69.38;53032.88;5034356;28;20498;-68
2023/03/05 01:11:43;;;;;;;8.25;1.33;;;;;;;-144.47;69.86;52997.09;5030408;28;20556;-66
2023/03/05 01:14:09;;;;;;;5.35;1.23;;;;;;;-144.47;69.94;53040.81;5035795;28;20088;-69
2023/03/05 01:16:34;;;;;;;3.65;0.70;;;;;;;-144.47;70.46;53066.63;5032132;28;20021;-69
2023/03/05 01:19:00;;;;;;;7.53;1.15;;;;;;;-144.47;70.47;53030.88;5034473;28;20028;-69
2023/03/05 01:21:25;;;;;;;7.75;1.40;;;;;;;-144.47;70.61;53024.91;5033876;28;20029;-70
2023/03/05 01:23:50;;;;;;;6.55;1.00;;;;;;;-144.47;70.88;53015.00;5035239;28;20048;-69
2023/03/05 01:26:16;;;;;;;5.07;1.05;;;;;;;-144.47;70.83;53018.97;5033066;28;20017;-67
2023/03/05 01:28:41;;;;;;;7.43;1.40;;;;;;;-144.47;71.28;53013.00;5028995;28;20022;-69
2023/03/05 01:31:11;;;;;;;4.50;0.93;;;;;;;-144.47;71.56;52987.19;5040579;28;20033;-69
2023/03/05 01:33:36;;;;;;;4.93;0.90;;;;;;;-144.47;71.65;53030.88;5035437;28;20024;-68
2023/03/05 01:36:06;;;;;;;2.83;0.90;;;;;;;-144.47;71.73;53048.75;5029832;28;20491;-68
2023/03/05 01:38:31;;;;;;;2.95;0.80;;;;;;;-144.47;71.95;53026.91;5029320;28;20017;-70
2023/03/05 01:40:57;;;;;;;6.22;1.27;;;;;;;-144.47;71.51;53044.78;5029880;28;20360;-68
2023/03/05 01:43:28;;;;;;;10.45;1.33;;;;;;;-144.47;72.16;53030.88;5029566;28;20029;-66
2023/03/05 01:46:12;;;;;;;10.05;1.40;;;;;;;-144.47;72.17;53028.88;5029847;28;20122;-68
2023/03/05 01:48:39;;;;;;;3.95;1.00;;;;;;;-144.47;72.30;53054.72;5030226;28;20037;-66
2023/03/05 01:51:06;;;;;;;17.20;1.88;;;;;;;-144.47;72.61;53015.00;5018721;28;20387;-68
2023/03/05 01:53:31;;;;;;;7.32;1.15;;;;;;;-144.47;72.73;53009.03;5029700;28;20044;-69
2023/03/05 01:55:57;;;;;;;2.33;0.95;;;;;;;-144.47;73.78;52991.16;5030019;28;20554;-67
2023/03/05 01:58:23;;;;;;;6.05;1.58;;;;;;;-144.47;73.82;53030.88;5029598;28;20017;-69
2023/03/05 02:00:51;;;;;;;9.63;1.48;;;;;;;-144.47;74.16;53032.88;5029737;28;20049;-67
2023/03/05 02:03:18;;;;;;;2.67;0.75;;;;;;;-144.47;74.96;53026.91;5029419;28;20549;-67
2023/03/05 02:05:44;;;;;;;12.68;1.83;;;;;;;-144.47;75.20;53007.03;5029855;28;20025;-71
2023/03/05 02:08:13;;;;;;;17.95;1.98;;;;;;;-144.47;75.38;53022.94;5029243;28;20005;-69
2023/03/05 02:10:41;;;;;;;1.95;0.90;;;;;;;-144.47;75.31;52995.13;5029892;28;20036;-69
2023/03/05 02:13:21;;;;;;;6.75;0.85;;;;;;;-144.47;75.83;53005.06;5036621;28;20040;-68
2023/03/05 02:15:48;;;;;;;3.10;0.90;;;;;;;-144.47;75.67;53046.75;5032912;28;20459;-68
2023/03/05 02:18:16;;;;;;;9.77;1.40;;;;;;;-144.47;76.16;53048.75;5030015;28;20020;-70
2023/03/05 02:20:49;;;;;;;3.40;1.02;;;;;;;-144.47;75.76;53022.94;5029785;28;20095;-69
2023/03/05 02:23:16;;;;;;;2.75;0.93;;;;;;;-144.47;76.19;53050.75;5030383;28;20107;-68
2023/03/05 02:25:41;;;;;;;3.25;0.88;;;;;;;-144.47;76.21;53030.88;5029446;28;20079;-68
2023/03/05 02:28:33;;;;;;;4.05;1.38;;;;;;;-144.47;76.18;53016.97;5027525;28;20021;-69
2023/03/05 02:30:58;;;;;;;3.78;1.13;;;;;;;-144.47;76.55;53018.97;5038925;28;20067;-69
2023/03/05 02:33:24;;;;;;;3.33;1.08;;;;;;;-144.47;77.08;53032.88;5036959;28;20028;-66
2023/03/05 02:35:49;;;;;;;3.63;1.27;;;;;;;-144.47;77.45;53026.91;5029859;28;20356;-70
2023/03/05 02:38:17;;;;;;;5.85;1.38;;;;;;;-144.47;78.22;53022.94;5030020;28;20044;-68
2023/03/05 02:40:43;;;;;;;5.50;0.90;;;;;;;-144.47;79.18;53050.75;5029829;28;20033;-70
2023/03/05 02:43:09;;;;;;;8.15;0.95;;;;;;;-144.47;80.50;53011.00;5028738;28;20037;-69
2023/03/05 02:45:34;;;;;;;1.95;0.90;;;;;;;-144.47;81.95;53036.84;5028459;28;20027;-70
2023/03/05 02:48:00;;;;;;;6.45;1.67;;;;;;;-144.47;83.02;53034.84;5028071;28;20092;-69
2023/03/05 02:50:27;;;;;;;7.22;1.45;;;;;;;-144.47;83.81;53046.75;5028728;28;20017;-69
2023/03/05 02:52:52;;;;;;;5.75;1.88;;;;;;;-144.47;84.19;53044.78;5028529;28;20601;-68
2023/03/05 02:55:18;;;;;;;4.70;2.05;;;;;;;-144.47;84.22;53066.63;5028577;28;20076;-69
2023/03/05 02:57:43;;;;;;;5.65;1.02;;;;;;;-144.47;83.91;53016.97;5028468;28;20009;-68
2023/03/05 03:00:09;;;;;;;2.53;0.75;;;;;;;-144.47;84.29;53042.78;5028635;28;20018;-69
2023/03/05 03:02:35;;;;;;;5.28;1.30;;;;;;;-144.47;84.36;53068.63;5028084;28;20021;-69
2023/03/05 03:05:00;;;;;;;7.50;1.40;;;;;;;-144.47;84.81;53054.72;5028270;28;20079;-70
2023/03/05 03:07:25;;;;;;;3.88;1.38;;;;;;;-144.47;84.51;53054.72;5026688;28;20500;-65
2023/03/05 03:09:51;;;;;;;2.60;1.05;;;;;;;-144.47;84.39;53040.81;5026574;28;20091;-69
2023/03/05 03:12:16;;;;;;;3.53;1.10;;;;;;;-144.47;84.49;53044.78;5031818;28;20023;-67
2023/03/05 03:14:42;;;;;;;9.57;1.90;;;;;;;-144.47;84.76;53050.75;5028740;28;20025;-69
2023/03/05 03:17:16;;;;;;;6.38;1.52;;;;;;;-144.47;84.72;53086.50;5027191;28;20021;-68
2023/03/05 03:19:42;;;;;;;6.72;1.80;;;;;;;-144.47;84.53;53042.78;5027272;28;20475;-68
2023/03/05 03:22:09;;;;;;;3.72;1.27;;;;;;;-144.47;83.79;53040.81;5027421;28;20017;-68
2023/03/05 03:24:36;;;;;;;5.15;1.38;;;;;;;-144.47;83.21;53054.72;5026653;28;20101;-66
2023/03/05 03:27:01;;;;;;;3.67;1.85;;;;;;;-144.47;82.61;53042.78;5027439;28;20411;-68
2023/03/05 03:29:27;;;;;;;7.20;1.63;;;;;;;-144.47;82.84;53038.81;5032703;28;20099;-66
2023/03/05 03:31:52;;;;;;;3.33;1.58;;;;;;;-144.47;82.43;53060.66;5038374;28;20424;-69
2023/03/05 03:34:18;;;;;;;5.50;1.65;;;;;;;-144.47;82.37;53052.72;5027500;28;20029;-68
2023/03/05 03:36:45;;;;;;;5.15;1.55;;;;;;;-144.47;82.33;53028.88;5026758;28;20017;-66
2023/03/05 03:39:13;;;;;;;7.57;1.30;;;;;;;-144.47;82.15;53016.97;5026962;28;20399;-70
2023/03/05 03:41:44;;;;;;;5.55;1.85;;;;;;;-144.47;82.01;53060.66;5027591;28;20030;-69
2023/03/05 03:44:12;;;;;;;2.65;1.20;;;;;;;-144.47;81.99;53034.84;5027388;28;20033;-69
2023/03/05 03:46:38;;;;;;;3.30;1.20;;;;;;;-144.47;82.25;53058.69;5026902;28;20021;-67
2023/03/05 03:49:05;;;;;;;3.17;1.55;;;;;;;-144.47;82.32;53048.75;5027721;28;20126;-69
2023/03/05 03:51:30;;;;;;;2.30;1.20;;;;;;;-144.47;82.71;53036.84;5027545;28;20371;-69
2023/03/05 03:53:56;;;;;;;12.70;2.55;;;;;;;-144.47;82.57;53078.53;5027448;28;20128;-68
2023/03/05 03:56:21;;;;;;;4.75;1.38;;;;;;;-144.47;81.98;53026.91;5008575;28;20033;-69
2023/03/05 03:58:50;;;;;;;10.27;2.30;;;;;;;-144.47;81.84;53050.75;5027488;28;20118;-67
2023/03/05 04:01:17;;;;;;;10.50;1.80;;;;;;;-144.47;81.80;53086.50;5027115;28;20091;-68
2023/03/05 04:03:42;;;;;;;4.55;1.25;;;;;;;-144.47;81.46;53070.59;5027180;28;20435;-70
2023/03/05 04:06:08;;;;;;;8.85;2.08;;;;;;;-144.47;80.96;53060.66;5027211;28;20013;-68
2023/03/05 04:08:33;;;;;;;4.30;1.65;;;;;;;-144.47;80.77;53048.75;5035585;28;20284;-70
2023/03/05 04:11:00;;;;;;;5.47;1.20;;;;;;;-144.47;80.48;53066.63;5030040;28;20098;-70
2023/03/05 04:13:26;;;;;;;8.20;1.20;;;;;;;-144.47;80.36;53060.66;5033667;28;20025;-66
2023/03/05 04:15:51;;;;;;;8.68;1.35;;;;;;;-144.47;79.87;53046.75;5030486;28;20013;-68
2023/03/05 04:18:17;;;;;;;3.08;0.90;;;;;;;-144.47;79.16;53032.88;5031121;28;20060;-67
2023/03/05 04:20:42;;;;;;;5.80;0.95;;;;;;;-144.47;78.54;53072.59;5032443;28;20124;-68
2023/03/05 04:23:08;;;;;;;8.65;1.13;;;;;;;-144.47;78.11;53034.84;5031425;28;20470;-67
2023/03/05 04:25:33;;;;;;;8.98;1.15;;;;;;;-144.47;77.97;53054.72;5030570;28;20045;-69
2023/03/05 04:27:59;;;;;;;4.57;0.90;;;;;;;-144.47;77.82;53026.91;5030560;28;20032;-68
2023/03/05 04:30:24;;;;;;;7.88;1.00;;;;;;;-144.47;77.58;53018.97;5039121;28;20076;-65
2023/03/05 04:32:49;;;;;;;5.40;0.90;;;;;;;-144.47;77.77;53044.78;5039601;28;20037;-67
2023/03/05 04:35:16;;;;;;;6.20;0.90;;;;;;;-144.47;78.03;53038.81;5031365;28;20021;-67
2023/03/05 04:37:41;;;;;;;0.95;0.70;;;;;;;-144.47;78.29;53058.69;5013079;28;20443;-67
2023/03/05 04:40:08;;;;;;;3.50;0.93;;;;;;;-144.47;78.41;53046.75;5030583;28;20021;-67
2023/03/05 04:42:33;;;;;;;1.33;0.77;;;;;;;-144.47;78.49;53050.75;5031407;28;20100;-66
2023/03/05 04:44:58;;;;;;;3.63;0.85;;;;;;;-144.47;78.86;53007.03;5030803;28;20449;-69
2023/03/05 04:47:24;;;;;;;10.65;1.13;;;;;;;-144.47;78.92;53046.75;5030651;28;20022;-67
2023/03/05 04:49:49;;;;;;;0.93;0.73;;;;;;;-144.47;79.08;53048.75;5030553;28;20535;-68
2023/03/05 04:52:14;;;;;;;3.97;0.93;;;;;;;-144.47;78.76;53046.75;5031513;28;20017;-67
2023/03/05 04:54:40;;;;;;;1.58;0.77;;;;;;;-144.47;78.92;53046.75;5013094;28;20040;-69
2023/03/05 04:57:05;;;;;;;7.53;1.90;;;;;;;-144.47;78.84;53038.81;5030410;28;20013;-68
2023/03/05 04:59:31;;;;;;;3.40;1.33;;;;;;;-144.47;79.02;53011.00;5030381;28;20009;-68
2023/03/05 05:01:56;;;;;;;1.33;0.70;;;;;;;-144.47;79.14;53056.69;5030719;28;20017;-66
2023/03/05 05:04:21;;;;;;;9.70;1.52;;;;;;;-144.47;79.41;53016.97;5022927;28;20060;-69
2023/03/05 05:06:47;;;;;;;6.82;1.38;;;;;;;-144.47;79.49;53042.78;5030461;28;20032;-68
2023/03/05 05:09:12;;;;;;;6.30;1.58;;;;;;;-144.47;79.48;53026.91;5039850;28;20018;-67
2023/03/05 05:11:38;;;;;;;6.55;1.17;;;;;;;-144.47;79.22;53026.91;5038573;28;20523;-67
2023/03/05 05:14:04;;;;;;;6.95;1.10;;;;;;;-144.47;79.48;53042.78;5035578;28;20020;-66
2023/03/05 05:16:29;;;;;;;3.10;1.42;;;;;;;-144.47;79.20;53034.84;5030374;28;20029;-68
2023/03/05 05:18:55;;;;;;;3.85;1.73;;;;;;;-144.47;79.83;53026.91;5030261;28;20021;-65
2023/03/05 05:21:20;;;;;;;4.38;1.50;;;;;;;-144.47;80.06;53046.75;5015561;28;20028;-68
2023/03/05 05:23:46;;;;;;;6.07;1.35;;;;;;;-144.47;80.32;53013.00;5034374;28;20035;-66
2023/03/05 05:26:13;;;;;;;13.73;2.05;;;;;;;-144.47;80.50;53016.97;5029697;28;20048;-67
2023/03/05 05:28:42;;;;;;;3.67;1.80;;;;;;;-144.47;80.52;53005.06;5029250;28;20041;-67
2023/03/05 05:31:11;;;;;;;;;;;;;;;-144.47;80.49;53038.81;5040708;28;20020;-68
2023/03/05 05:33:37;;;;;;;3.20;1.48;;;;;;;-144.47;80.32;53032.88;5034909;28;19905;-66
2023/03/05 05:36:08;;;;;;;8.07;1.80;;;;;;;-144.47;80.12;53032.88;5030075;28;20131;-67
2023/03/05 05:38:34;;;;;;;4.70;1.63;;;;;;;-144.47;80.22;53015.00;5029630;28;20014;-67
2023/03/05 05:41:09;;;;;;;4.45;1.55;;;;;;;-144.47;80.26;53018.97;5029518;28;20560;-69
2023/03/05 05:43:34;;;;;;;9.15;1.73;;;;;;;-144.47;80.48;53048.75;5029872;28;20013;-67
2023/03/05 05:46:04;;;;;;;9.57;1.70;;;;;;;-144.47;79.98;53034.84;5029870;28;20028;-66
2023/03/05 05:48:32;;;;;;;4.15;2.00;;;;;;;-144.47;80.05;53026.91;5029665;28;20052;-68
2023/03/05 05:50:57;;;;;;;7.95;1.85;;;;;;;-144.47;80.26;53050.75;5029840;28;20105;-68
2023/03/05 05:53:23;;;;;;;7.13;2.35;;;;;;;-144.47;80.46;53044.78;5029673;28;20113;-67
2023/03/05 05:55:49;;;;;;;12.63;2.15;;;;;;;-144.47;81.05;53040.81;5029352;28;20030;-67
2023/03/05 05:58:15;;;;;;;5.68;1.65;;;;;;;-144.47;81.08;53022.94;5029273;28;20052;-66
2023/03/05 06:00:40;;;;;;;7.53;2.83;;;;;;;-144.47;81.27;53036.84;5029357;28;20029;-68
2023/03/05 06:03:06;;;;;;;3.90;1.80;;;;;;;-144.47;81.44;53036.84;5029688;28;20013;-66
2023/03/05 06:05:32;;;;;;;9.10;1.98;;;;;;;-144.47;81.60;53020.94;5029651;28;20017;-68
2023/03/05 06:07:58;;;;;;;5.70;1.50;;;;;;;-144.47;82.67;53042.78;5032507;28;20032;-65
2023/03/05 06:10:23;;;;;;;5.20;1.80;;;;;;;-144.47;83.42;53011.00;5035089;28;20037;-67
2023/03/05 06:12:48;;;;;;;3.17;1.00;;;;;;;-144.47;84.20;53024.91;5032914;28;20036;-66
2023/03/05 06:15:14;;;;;;;4.18;1.08;;;;;;;-144.47;85.21;53042.78;5032754;28;20044;-69
2023/03/05 06:17:39;;;;;;;1.40;0.80;;;;;;;-144.47;85.39;53034.84;5029314;28;20009;-67
2023/03/05 06:20:06;;;;;;;1.27;0.90;;;;;;;-144.47;85.70;53032.88;5029385;28;20071;-66
2023/03/05 06:22:35;;;;;;;4.82;1.15;;;;;;;-144.47;86.04;53032.88;5029126;28;20017;-68
2023/03/05 06:25:01;;;;;;;1.63;0.73;;;;;;;-144.47;86.38;53009.03;5028889;28;20030;-66
2023/03/05 06:27:26;;;;;;;5.60;0.90;;;;;;;-144.47;86.57;53050.75;5010445;28;20389;-67
2023/03/05 06:29:53;;;;;;;3.10;0.82;;;;;;;-144.47;87.14;53060.66;5032263;28;20024;-68
2023/03/05 06:32:18;;;;;;;7.50;1.08;;;;;;;-144.47;87.74;53018.97;5037311;28;20483;-68
2023/03/05 06:34:44;;;;;;;2.58;1.30;;;;;;;-144.47;88.24;53036.84;5029110;28;20064;-68
2023/03/05 06:37:09;;;;;;;4.20;1.25;;;;;;;-144.47;88.85;53066.63;5028129;28;20347;-68
2023/03/05 06:39:34;;;;;;;6.88;2.13;;;;;;;-144.47;89.86;53062.66;5027852;28;20041;-67
2023/03/05 06:42:00;;;;;;;6.55;2.00;;;;;;;-144.47;89.45;53032.88;5028060;28;20026;-67
2023/03/05 06:44:25;;;;;;;4.10;1.67;;;;;;;-144.47;90.00;53042.78;5028451;28;20336;-66
2023/03/05 06:46:51;;;;;;;5.53;2.20;;;;;;;-144.47;89.94;53018.97;5028172;28;20320;-67
2023/03/05 06:49:16;;;;;;;4.70;1.70;;;;;;;-144.47;89.15;53036.84;5028529;28;20021;-67
2023/03/05 06:51:41;;;;;;;5.78;2.58;;;;;;;-144.47;89.56;53034.84;5028449;28;20028;-67
2023/03/05 06:54:12;;;;;;;8.10;2.45;;;;;;;-144.47;89.26;53042.78;5028732;28;20029;-68
2023/03/05 06:56:40;;;;;;;6.63;3.00;;;;;;;-144.47;88.91;53026.91;5028441;28;20021;-67
2023/03/05 06:59:06;;;;;;;3.95;1.90;;;;;;;-144.47;88.55;53066.63;5028569;28;20459;-65
2023/03/05 07:01:32;;;;;;;10.25;2.00;;;;;;;-144.47;88.67;53044.78;5027913;28;20032;-67
2023/03/05 07:04:01;;;;;;;8.73;2.30;;;;;;;-144.47;88.81;53024.91;5028534;28;20462;-67
2023/03/05 07:06:30;;;;;;;6.28;2.47;;;;;;;-144.47;88.42;53044.78;5027937;28;20017;-67
2023/03/05 07:08:56;;;;;;;7.30;2.28;;;;;;;-144.47;87.64;53044.78;5016878;28;20021;-65
2023/03/05 07:11:22;;;;;;;4.40;1.60;;;;;;;-144.47;87.84;53028.88;5027505;28;20364;-67
2023/03/05 07:13:48;;;;;;;4.47;1.67;;;;;;;-144.47;88.22;53064.66;5032960;28;20033;-68
2023/03/05 07:16:17;;;;;;;10.57;2.22;;;;;;;-144.47;88.46;53042.78;5027184;28;20435;-66
2023/03/05 07:18:43;;;;;;;7.22;1.80;;;;;;;-144.47;88.14;53076.56;5027963;28;20040;-67
2023/03/05 07:21:10;;;;;;;6.60;2.03;;;;;;;-144.47;87.09;53032.88;5026328;28;20029;-65
2023/03/05 07:23:35;;;;;;;11.30;2.13;;;;;;;-144.47;86.38;53046.75;5027752;28;20105;-64
2023/03/05 07:26:02;;;;;;;3.30;1.52;;;;;;;-144.47;86.42;53042.78;5027010;28;20324;-67
2023/03/05 07:28:27;;;;;;;3.65;1.45;;;;;;;-144.47;87.16;53050.75;5023417;28;20036;-66
2023/03/05 07:31:13;;;;;;;9.57;1.90;;;;;;;-144.47;87.21;53034.84;5020818;28;20116;-65
2023/03/05 07:33:39;;;;;;;4.60;1.23;;;;;;;-144.47;86.27;53030.88;5024774;28;20131;-65
2023/03/05 07:36:09;;;;;;;3.55;1.00;;;;;;;-144.47;86.24;53013.00;5025449;28;20538;-65
2023/03/05 07:38:34;;;;;;;4.15;1.58;;;;;;;-144.47;86.42;53024.91;5021740;28;20023;-67
2023/03/05 07:41:07;;;;;;;5.05;1.40;;;;;;;-144.47;87.34;53018.97;5034517;28;20471;-64
2023/03/05 07:43:33;;;;;;;4.53;1.52;;;;;;;-144.47;87.71;53046.75;5026765;28;20100;-66
2023/03/05 07:45:58;;;;;;;8.98;1.80;;;;;;;-144.47;87.72;53038.81;5028268;28;20223;-68
2023/03/05 07:48:24;;;;;;;7.85;1.77;;;;;;;-144.47;87.61;53026.91;5025933;28;20633;-65
2023/03/05 07:50:59;;;;;;;11.23;2.05;;;;;;;-144.47;88.34;53038.81;5027965;28;20021;-66
2023/03/05 07:53:24;;;;;;;2.13;1.05;;;;;;;-144.47;88.83;53005.06;5031444;28;20530;-66
2023/03/05 07:55:50;;;;;;;2.92;1.20;;;;;;;-144.47;89.28;53007.03;5031783;28;20057;-67
2023/03/05 07:58:15;;;;;;;2.83;1.27;;;;;;;-144.47;88.95;53026.91;5013324;28;20096;-67
2023/03/05 08:00:40;;;;;;;4.68;1.60;;;;;;;-144.47;88.57;53038.81;5026291;28;20052;-65
2023/03/05 08:03:06;;;;;;;6.40;1.50;;;;;;;-144.47;88.56;53003.06;5028334;28;20086;-67
2023/03/05 08:05:31;;;;;;;8.35;1.73;;;;;;;-144.47;88.46;53022.94;5029355;28;20052;-65
2023/03/05 08:07:57;;;;;;;5.13;1.27;;;;;;;-144.47;88.25;53036.84;5029022;28;20223;-71
2023/03/05 08:10:22;;;;;;;6.55;2.00;;;;;;;-144.47;88.02;53038.81;5008671;28;20025;-69
2023/03/05 08:12:48;;;;;;;9.25;1.58;;;;;;;-144.47;87.64;53011.00;5027480;28;20410;-69
2023/03/05 08:15:13;;;;;;;3.85;1.50;;;;;;;-144.47;87.25;53030.88;5027010;28;20021;-68
2023/03/05 08:17:38;;;;;;;6.15;1.40;;;;;;;-144.47;86.52;53003.06;5026110;28;20074;-67
2023/03/05 08:20:10;;;;;;;4.15;1.40;;;;;;;-144.47;85.58;53020.94;5025524;28;20089;-68
2023/03/05 08:22:36;;;;;;;6.57;1.52;;;;;;;-144.47;85.11;53034.84;5026701;28;20029;-66
2023/03/05 08:25:02;;;;;;;4.20;1.45;;;;;;;-144.47;84.71;52991.16;5026229;28;20021;-65
2023/03/05 08:27:28;;;;;;;5.38;1.48;;;;;;;-144.47;85.35;52987.19;5025736;28;20056;-66
2023/03/05 08:29:53;;;;;;;5.22;1.73;;;;;;;-144.47;84.92;53040.81;5033466;28;20045;-66
2023/03/05 08:32:19;;;;;;;11.02;2.08;;;;;;;-144.47;84.59;52997.09;5031238;28;20032;-69
2023/03/05 08:34:44;;;;;;;5.53;2.08;;;;;;;-144.47;84.46;53020.94;5008100;28;20029;-66
2023/03/05 08:37:09;;;;;;;6.38;1.70;;;;;;;-144.47;84.94;52983.22;5032493;28;20010;-67
2023/03/05 08:39:36;;;;;;;5.75;1.55;;;;;;;-144.47;84.21;52995.13;5022946;28;20033;-66
2023/03/05 08:42:02;;;;;;;6.32;2.15;;;;;;;-144.47;83.59;53007.03;5024288;28;20100;-64
2023/03/05 08:44:27;;;;;;;6.13;1.65;;;;;;;-144.47;83.29;52979.22;5026279;28;20029;-68
2023/03/05 08:46:53;;;;;;;5.60;1.83;;;;;;;-144.47;82.82;53013.00;5026640;28;20021;-68
2023/03/05 08:49:18;;;;;;;14.57;2.40;;;;;;;-144.47;82.29;53015.00;5032466;28;20446;-68
2023/03/05 08:51:43;;;;;;;10.60;2.13;;;;;;;-144.47;82.10;53005.06;5029619;28;20018;-67
2023/03/05 08:54:09;;;;;;;6.40;2.00;;;;;;;-144.47;81.67;53009.03;5026249;28;20075;-67
2023/03/05 08:56:35;;;;;;;6.45;2.00;;;;;;;-144.47;81.87;53011.00;5027318;28;20097;-68
2023/03/05 08:59:02;;;;;;;4.22;1.77;;;;;;;-144.47;80.95;53007.03;5027900;28;20378;-70
2023/03/05 09:01:28;;;;;;;10.63;2.13;;;;;;;-144.47;80.66;52999.09;5037590;28;20021;-69
2023/03/05 09:03:53;;;;;;;5.65;1.65;;;;;;;-144.47;81.63;52991.16;5032557;28;20021;-69
2023/03/05 09:06:20;;;;;;;10.75;2.03;;;;;;;-144.47;80.06;52995.13;5031405;28;20022;-66
2023/03/05 09:08:45;;;;;;;4.05;1.30;;;;;;;-144.47;80.12;53020.94;5032671;28;20116;-64
2023/03/05 09:11:12;;;;;;;3.67;1.88;;;;;;;-144.47;80.67;52981.22;5030961;28;20098;-69
2023/03/05 09:13:38;;;;;;;6.95;1.90;;;;;;;-144.47;79.33;53005.06;5031820;28;20037;-66
2023/03/05 09:16:06;;;;;;;3.50;1.70;;;;;;;-144.47;78.68;53007.03;5025760;28;20048;-66
2023/03/05 09:18:35;;;;;;;7.57;1.73;;;;;;;-144.47;77.75;52981.22;5037641;28;20041;-66
2023/03/05 09:21:03;;;;;;;;;;;;;;;-144.47;77.82;53024.91;5030482;28;20017;-66
2023/03/05 09:23:28;;;;;;;4.63;1.73;;;;;;;-144.47;77.97;52995.13;5030097;28;19920;-69
2023/03/05 09:25:54;;;;;;;2.92;1.45;;;;;;;-144.47;78.29;53005.06;5029076;28;20164;-68
2023/03/05 09:28:19;;;;;;;3.33;1.48;;;;;;;-144.47;78.44;52965.34;5025800;28;20108;-67
2023/03/05 09:30:44;;;;;;;3.80;1.45;;;;;;;-144.47;79.31;53005.06;5028921;28;20063;-68
2023/03/05 09:33:10;;;;;;;7.38;1.95;;;;;;;-144.47;79.86;52999.09;5029851;28;20087;-65
2023/03/05 09:35:36;;;;;;;4.55;1.70;;;;;;;-144.47;81.11;53011.00;5030196;28;20032;-67
2023/03/05 09:38:02;;;;;;;4.57;1.88;;;;;;;-144.47;81.23;52997.09;5030756;28;20032;-67
2023/03/05 09:40:36;;;;;;;5.05;2.65;;;;;;;-144.47;83.42;52995.13;5031092;28;20426;-69
2023/03/05 09:43:05;;;;;;;6.32;2.45;;;;;;;-144.47;82.60;52983.22;5029277;28;20101;-66
2023/03/05 09:45:43;;;;;;;6.00;2.85;;;;;;;-144.47;82.72;52977.25;5030950;28;20087;-67
2023/03/05 09:48:23;;;;;;;6.17;2.57;;;;;;;-144.47;83.40;53026.91;5027792;28;20107;-68
2023/03/05 09:51:03;;;;;;;3.85;1.85;;;;;;;-144.47;82.27;52983.22;5029573;28;20263;-66
2023/03/05 09:53:43;;;;;;;5.28;2.08;;;;;;;-144.47;82.76;52993.13;5015494;28;20087;-67
2023/03/05 09:56:19;;;;;;;3.28;1.50;;;;;;;-144.47;84.43;53015.00;5029096;28;20475;-66
2023/03/05 09:58:58;;;;;;;4.40;1.77;;;;;;;-144.47;85.41;53007.03;5029071;28;20040;-67
2023/03/05 10:01:32;;;;;;;3.13;1.65;;;;;;;-144.47;86.63;53005.06;5027179;28;20538;-69
2023/03/05 10:04:02;;;;;;;5.72;1.80;;;;;;;-144.47;85.71;52989.16;5029245;28;20452;-66
2023/03/05 10:06:31;;;;;;;6.97;1.80;;;;;;;-144.47;87.43;53003.06;5011865;28;20061;-67
2023/03/05 10:09:06;;;;;;;2.65;1.45;;;;;;;-144.47;86.91;53046.75;5020382;28;20013;-67
2023/03/05 10:11:58;;;;;;;3.22;1.42;;;;;;;-144.47;87.18;53015.00;5029372;28;20114;-67
2023/03/05 10:14:30;;;;;;;5.35;1.52;;;;;;;-144.47;87.28;53005.06;5030551;28;20029;-68
2023/03/05 10:17:23;;;;;;;2.63;1.50;;;;;;;-144.47;88.07;53003.06;5029050;28;20074;-65
2023/03/05 10:20:03;;;;;;;3.78;1.50;;;;;;;-144.47;88.02;53015.00;5026023;28;20458;-67
2023/03/05 10:22:33;;;;;;;7.45;2.13;;;;;;;-144.47;88.14;52999.09;5029958;28;20199;-67
2023/03/05 10:25:20;;;;;;;4.35;2.08;;;;;;;-144.47;87.69;53022.94;5011249;28;20032;-68
2023/03/05 10:27:52;;;;;;;4.30;1.67;;;;;;;-144.47;87.62;52985.19;5021430;28;20428;-68
2023/03/05 10:30:47;;;;;;;5.68;1.70;;;;;;;-144.47;87.64;53018.97;5026246;28;20539;-68
2023/03/05 10:33:28;;;;;;;5.97;2.05;;;;;;;-144.47;87.15;53018.97;5028789;28;20528;-66
2023/03/05 10:36:26;;;;;;;10.13;2.13;;;;;;;-144.47;88.16;53003.06;5028047;28;20377;-68
2023/03/05 10:38:55;;;;;;;5.13;1.98;;;;;;;-144.47;86.85;52973.28;4993767;28;20064;-69
2023/03/05 10:41:27;;;;;;;3.10;1.45;;;;;;;-144.47;86.43;52977.25;5028736;28;20114;-68
2023/03/05 10:44:02;;;;;;;5.13;2.25;;;;;;;-144.47;87.21;52995.13;5028320;28;20096;-69
2023/03/05 10:46:37;;;;;;;6.40;2.40;;;;;;;-144.47;86.91;53007.03;5026987;28;20093;-69
2023/03/05 10:49:14;;;;;;;4.93;1.70;;;;;;;-144.47;87.86;53011.00;5028631;28;20040;-66
2023/03/05 10:51:47;;;;;;;6.15;2.50;;;;;;;-144.47;88.31;53016.97;5029318;28;20068;-68
2023/03/05 10:54:12;;;;;;;5.97;2.05;;;;;;;-144.47;87.78;53016.97;5023386;28;20029;-68
2023/03/05 10:56:38;;;;;;;5.20;1.90;;;;;;;-144.47;87.54;52947.47;5013802;28;20037;-66
2023/03/05 10:59:03;;;;;;;4.18;1.85;;;;;;;-144.47;88.36;53013.00;5030899;28;20459;-69
2023/03/05 11:01:32;;;;;;;5.95;2.05;;;;;;;-144.47;86.97;52991.16;5011973;28;20087;-66
2023/03/05 11:04:03;;;;;;;4.70;1.90;;;;;;;-144.47;84.15;52985.19;5036127;28;20028;-68
2023/03/05 11:06:41;;;;;;;7.43;2.00;;;;;;;-144.47;83.97;52955.41;5028380;28;20033;-67
2023/03/05 11:09:21;;;;;;;4.30;2.03;;;;;;;-144.47;84.65;52995.13;5030903;28;20125;-68
2023/03/05 11:12:18;;;;;;;6.93;1.98;;;;;;;-144.47;83.49;52999.09;5026787;28;20030;-66
2023/03/05 11:15:06;;;;;;;6.47;2.15;;;;;;;-144.47;81.70;52993.13;5008253;28;20523;-69
2023/03/05 11:17:43;;;;;;;3.25;1.75;;;;;;;-144.47;79.86;53005.06;5027653;28;20086;-68
2023/03/05 11:20:26;;;;;;;6.53;1.60;;;;;;;-144.47;79.14;53018.97;5015303;28;20055;-67